Terminal Aerodrome Forecast
Issued by NWS

Home | Current Version | Previous Version | Text Only | Print | Product List | Glossary On
Versions: 1 2 3 4 5 6 7 8 9 10 11 12 13 14 15 16 17 18 19 20
000
FTUS44 KCRP 031733
TAFALI
TAF
KALI 031733Z 0318/0418 16013G21KT P6SM SCT035
     FM040200 16010KT P6SM FEW040
     FM040700 16008KT 6SM BR BKN020
     FM041000 14004KT 6SM BR BKN015
     FM041500 15014KT P6SM SCT030=

USA.gov is the U.S. government's official web portal to all federal, state and local government web resources and services.